sensor_id;sensor_type;location;lat;lon;timestamp;P1;durP1;ratioP1;P2;durP2;ratioP2
48685;SDS011;34485;51.536;3.816;2024-03-17T00:00:19;6.10;;;5.03;;
48685;SDS011;34485;51.536;3.816;2024-03-17T00:02:45;6.07;;;5.07;;
48685;SDS011;34485;51.536;3.816;2024-03-17T00:05:12;7.72;;;4.97;;
48685;SDS011;34485;51.536;3.816;2024-03-17T00:07:41;6.18;;;4.95;;
48685;SDS011;34485;51.536;3.816;2024-03-17T00:10:07;9.98;;;4.68;;
48685;SDS011;34485;51.536;3.816;2024-03-17T00:12:33;10.07;;;5.57;;
48685;SDS011;34485;51.536;3.816;2024-03-17T00:14:59;10.00;;;5.43;;
48685;SDS011;34485;51.536;3.816;2024-03-17T00:17:25;5.55;;;4.38;;
48685;SDS011;34485;51.536;3.816;2024-03-17T00:19:51;5.07;;;4.60;;
48685;SDS011;34485;51.536;3.816;2024-03-17T00:22:16;5.00;;;4.50;;
48685;SDS011;34485;51.536;3.816;2024-03-17T00:24:42;7.77;;;5.07;;
48685;SDS011;34485;51.536;3.816;2024-03-17T00:27:08;4.57;;;4.18;;
48685;SDS011;34485;51.536;3.816;2024-03-17T00:29:36;6.05;;;5.20;;
48685;SDS011;34485;51.536;3.816;2024-03-17T00:32:02;5.50;;;4.95;;
48685;SDS011;34485;51.536;3.816;2024-03-17T00:34:28;8.93;;;4.53;;
48685;SDS011;34485;51.536;3.816;2024-03-17T00:36:54;4.77;;;4.27;;
48685;SDS011;34485;51.536;3.816;2024-03-17T00:39:20;4.50;;;4.10;;
48685;SDS011;34485;51.536;3.816;2024-03-17T00:41:45;6.40;;;4.03;;
48685;SDS011;34485;51.536;3.816;2024-03-17T00:44:11;5.25;;;4.75;;
48685;SDS011;34485;51.536;3.816;2024-03-17T00:46:37;7.97;;;4.37;;
48685;SDS011;34485;51.536;3.816;2024-03-17T00:49:03;6.68;;;4.30;;
48685;SDS011;34485;51.536;3.816;2024-03-17T00:51:30;7.70;;;5.28;;
48685;SDS011;34485;51.536;3.816;2024-03-17T00:53:56;9.55;;;5.60;;
48685;SDS011;34485;51.536;3.816;2024-03-17T00:56:23;4.15;;;3.58;;
48685;SDS011;34485;51.536;3.816;2024-03-17T00:58:49;5.97;;;4.33;;
48685;SDS011;34485;51.536;3.816;2024-03-17T01:01:16;7.43;;;4.72;;
48685;SDS011;34485;51.536;3.816;2024-03-17T01:03:44;8.65;;;4.75;;
48685;SDS011;34485;51.536;3.816;2024-03-17T01:06:10;5.20;;;4.70;;
48685;SDS011;34485;51.536;3.816;2024-03-17T01:08:36;7.10;;;4.63;;
48685;SDS011;34485;51.536;3.816;2024-03-17T01:11:02;5.22;;;4.50;;
48685;SDS011;34485;51.536;3.816;2024-03-17T01:13:28;4.60;;;4.10;;
48685;SDS011;34485;51.536;3.816;2024-03-17T01:15:54;5.65;;;4.13;;
48685;SDS011;34485;51.536;3.816;2024-03-17T01:18:19;6.10;;;4.23;;
48685;SDS011;34485;51.536;3.816;2024-03-17T01:20:45;6.07;;;3.70;;
48685;SDS011;34485;51.536;3.816;2024-03-17T01:23:11;8.73;;;4.90;;
48685;SDS011;34485;51.536;3.816;2024-03-17T01:25:37;7.23;;;4.83;;
48685;SDS011;34485;51.536;3.816;2024-03-17T01:28:03;6.28;;;4.25;;
48685;SDS011;34485;51.536;3.816;2024-03-17T01:30:30;5.10;;;4.60;;
48685;SDS011;34485;51.536;3.816;2024-03-17T01:32:57;5.97;;;4.47;;
48685;SDS011;34485;51.536;3.816;2024-03-17T01:35:24;5.28;;;4.25;;
48685;SDS011;34485;51.536;3.816;2024-03-17T01:37:50;5.38;;;4.88;;
48685;SDS011;34485;51.536;3.816;2024-03-17T01:40:16;4.87;;;4.33;;
48685;SDS011;34485;51.536;3.816;2024-03-17T01:42:42;5.60;;;5.10;;
48685;SDS011;34485;51.536;3.816;2024-03-17T01:47:52;8.15;;;5.25;;
48685;SDS011;34485;51.536;3.816;2024-03-17T01:50:19;9.40;;;4.70;;
48685;SDS011;34485;51.536;3.816;2024-03-17T01:52:53;7.25;;;4.80;;
48685;SDS011;34485;51.536;3.816;2024-03-17T01:55:21;6.68;;;5.43;;
48685;SDS011;34485;51.536;3.816;2024-03-17T01:57:49;6.38;;;4.45;;
48685;SDS011;34485;51.536;3.816;2024-03-17T02:00:16;8.55;;;4.93;;
48685;SDS011;34485;51.536;3.816;2024-03-17T02:02:42;5.43;;;4.07;;
48685;SDS011;34485;51.536;3.816;2024-03-17T02:05:08;8.02;;;5.25;;
48685;SDS011;34485;51.536;3.816;2024-03-17T02:07:35;8.45;;;5.35;;
48685;SDS011;34485;51.536;3.816;2024-03-17T02:10:01;9.10;;;5.05;;
48685;SDS011;34485;51.536;3.816;2024-03-17T02:12:30;7.43;;;4.70;;
48685;SDS011;34485;51.536;3.816;2024-03-17T02:14:57;11.85;;;5.22;;
48685;SDS011;34485;51.536;3.816;2024-03-17T02:17:23;8.13;;;5.45;;
48685;SDS011;34485;51.536;3.816;2024-03-17T02:19:50;6.53;;;5.13;;
48685;SDS011;34485;51.536;3.816;2024-03-17T02:22:19;8.27;;;6.32;;
48685;SDS011;34485;51.536;3.816;2024-03-17T02:24:45;7.57;;;5.60;;
48685;SDS011;34485;51.536;3.816;2024-03-17T02:27:11;7.85;;;4.90;;
48685;SDS011;34485;51.536;3.816;2024-03-17T02:29:37;7.90;;;5.72;;
48685;SDS011;34485;51.536;3.816;2024-03-17T02:32:04;7.80;;;5.15;;
48685;SDS011;34485;51.536;3.816;2024-03-17T02:34:36;6.63;;;5.47;;
48685;SDS011;34485;51.536;3.816;2024-03-17T02:37:03;5.53;;;5.00;;
48685;SDS011;34485;51.536;3.816;2024-03-17T02:39:31;8.00;;;6.07;;
48685;SDS011;34485;51.536;3.816;2024-03-17T02:41:56;8.32;;;5.72;;
48685;SDS011;34485;51.536;3.816;2024-03-17T02:44:22;6.87;;;4.97;;
48685;SDS011;34485;51.536;3.816;2024-03-17T02:46:48;5.43;;;4.93;;
48685;SDS011;34485;51.536;3.816;2024-03-17T02:49:13;6.90;;;5.55;;
48685;SDS011;34485;51.536;3.816;2024-03-17T02:51:43;7.22;;;5.75;;
48685;SDS011;34485;51.536;3.816;2024-03-17T02:54:09;6.00;;;5.07;;
48685;SDS011;34485;51.536;3.816;2024-03-17T02:56:34;6.40;;;5.20;;
48685;SDS011;34485;51.536;3.816;2024-03-17T02:59:00;8.60;;;5.70;;
48685;SDS011;34485;51.536;3.816;2024-03-17T03:01:26;7.80;;;5.30;;
48685;SDS011;34485;51.536;3.816;2024-03-17T03:03:52;7.13;;;5.80;;
48685;SDS011;34485;51.536;3.816;2024-03-17T03:06:17;9.17;;;5.50;;
48685;SDS011;34485;51.536;3.816;2024-03-17T03:08:44;7.47;;;5.57;;
48685;SDS011;34485;51.536;3.816;2024-03-17T03:11:14;8.48;;;6.05;;
48685;SDS011;34485;51.536;3.816;2024-03-17T03:13:41;10.45;;;6.25;;
48685;SDS011;34485;51.536;3.816;2024-03-17T03:16:09;8.23;;;5.53;;
48685;SDS011;34485;51.536;3.816;2024-03-17T03:18:37;9.48;;;5.60;;
48685;SDS011;34485;51.536;3.816;2024-03-17T03:21:06;6.75;;;5.65;;
48685;SDS011;34485;51.536;3.816;2024-03-17T03:23:32;5.95;;;5.45;;
48685;SDS011;34485;51.536;3.816;2024-03-17T03:25:59;7.95;;;6.00;;
48685;SDS011;34485;51.536;3.816;2024-03-17T03:28:32;7.33;;;5.70;;
48685;SDS011;34485;51.536;3.816;2024-03-17T03:31:01;9.80;;;5.80;;
48685;SDS011;34485;51.536;3.816;2024-03-17T03:33:27;8.75;;;5.82;;
48685;SDS011;34485;51.536;3.816;2024-03-17T03:35:53;7.28;;;5.50;;
48685;SDS011;34485;51.536;3.816;2024-03-17T03:38:20;7.70;;;5.93;;
48685;SDS011;34485;51.536;3.816;2024-03-17T03:40:47;7.17;;;5.30;;
48685;SDS011;34485;51.536;3.816;2024-03-17T03:43:17;8.20;;;5.45;;
48685;SDS011;34485;51.536;3.816;2024-03-17T03:45:43;9.75;;;7.00;;
48685;SDS011;34485;51.536;3.816;2024-03-17T03:48:09;7.13;;;5.57;;
48685;SDS011;34485;51.536;3.816;2024-03-17T03:50:35;9.18;;;6.28;;
48685;SDS011;34485;51.536;3.816;2024-03-17T03:53:02;7.55;;;6.20;;
48685;SDS011;34485;51.536;3.816;2024-03-17T03:55:28;5.87;;;5.03;;
48685;SDS011;34485;51.536;3.816;2024-03-17T03:57:54;7.40;;;5.82;;
48685;SDS011;34485;51.536;3.816;2024-03-17T04:00:20;8.07;;;6.25;;
48685;SDS011;34485;51.536;3.816;2024-03-17T04:02:49;7.93;;;6.30;;
48685;SDS011;34485;51.536;3.816;2024-03-17T04:05:16;6.90;;;5.40;;
48685;SDS011;34485;51.536;3.816;2024-03-17T04:07:46;9.47;;;6.23;;
48685;SDS011;34485;51.536;3.816;2024-03-17T04:10:13;9.13;;;6.15;;
48685;SDS011;34485;51.536;3.816;2024-03-17T04:12:40;7.35;;;6.40;;
48685;SDS011;34485;51.536;3.816;2024-03-17T04:15:06;7.72;;;5.93;;
48685;SDS011;34485;51.536;3.816;2024-03-17T04:17:35;12.38;;;6.85;;
48685;SDS011;34485;51.536;3.816;2024-03-17T04:20:02;7.60;;;5.93;;
48685;SDS011;34485;51.536;3.816;2024-03-17T04:22:29;8.30;;;6.07;;
48685;SDS011;34485;51.536;3.816;2024-03-17T04:24:55;6.03;;;5.45;;
48685;SDS011;34485;51.536;3.816;2024-03-17T04:27:28;10.03;;;5.90;;
48685;SDS011;34485;51.536;3.816;2024-03-17T04:29:55;9.95;;;6.30;;
48685;SDS011;34485;51.536;3.816;2024-03-17T04:32:22;10.38;;;6.47;;
48685;SDS011;34485;51.536;3.816;2024-03-17T04:34:48;9.23;;;5.65;;
48685;SDS011;34485;51.536;3.816;2024-03-17T04:37:14;11.85;;;6.05;;
48685;SDS011;34485;51.536;3.816;2024-03-17T04:39:41;8.83;;;6.07;;
48685;SDS011;34485;51.536;3.816;2024-03-17T04:42:08;10.93;;;6.28;;
48685;SDS011;34485;51.536;3.816;2024-03-17T04:44:34;7.75;;;5.72;;
48685;SDS011;34485;51.536;3.816;2024-03-17T04:47:00;8.73;;;7.22;;
48685;SDS011;34485;51.536;3.816;2024-03-17T04:49:26;9.90;;;7.07;;
48685;SDS011;34485;51.536;3.816;2024-03-17T04:51:51;10.55;;;6.43;;
48685;SDS011;34485;51.536;3.816;2024-03-17T04:54:17;14.63;;;6.70;;
48685;SDS011;34485;51.536;3.816;2024-03-17T04:56:43;10.40;;;6.43;;
48685;SDS011;34485;51.536;3.816;2024-03-17T04:59:08;8.23;;;5.33;;
48685;SDS011;34485;51.536;3.816;2024-03-17T05:01:34;8.37;;;5.90;;
48685;SDS011;34485;51.536;3.816;2024-03-17T05:04:04;12.13;;;6.30;;
48685;SDS011;34485;51.536;3.816;2024-03-17T05:06:30;9.30;;;6.55;;
48685;SDS011;34485;51.536;3.816;2024-03-17T05:08:56;6.97;;;5.90;;
48685;SDS011;34485;51.536;3.816;2024-03-17T05:11:22;8.65;;;6.43;;
48685;SDS011;34485;51.536;3.816;2024-03-17T05:13:49;10.65;;;6.13;;
48685;SDS011;34485;51.536;3.816;2024-03-17T05:16:14;11.63;;;6.93;;
48685;SDS011;34485;51.536;3.816;2024-03-17T05:18:40;12.02;;;6.35;;
48685;SDS011;34485;51.536;3.816;2024-03-17T05:21:06;7.68;;;5.38;;
48685;SDS011;34485;51.536;3.816;2024-03-17T05:23:34;7.90;;;5.50;;
48685;SDS011;34485;51.536;3.816;2024-03-17T05:26:02;6.68;;;5.13;;
48685;SDS011;34485;51.536;3.816;2024-03-17T05:28:29;9.23;;;6.00;;
48685;SDS011;34485;51.536;3.816;2024-03-17T05:30:56;7.78;;;5.47;;
48685;SDS011;34485;51.536;3.816;2024-03-17T05:33:22;6.68;;;5.43;;
48685;SDS011;34485;51.536;3.816;2024-03-17T05:35:53;5.70;;;5.10;;
48685;SDS011;34485;51.536;3.816;2024-03-17T05:38:23;8.32;;;5.80;;
48685;SDS011;34485;51.536;3.816;2024-03-17T05:40:53;8.60;;;6.63;;
48685;SDS011;34485;51.536;3.816;2024-03-17T05:43:21;12.40;;;5.57;;
48685;SDS011;34485;51.536;3.816;2024-03-17T05:45:49;6.70;;;5.05;;
48685;SDS011;34485;51.536;3.816;2024-03-17T05:48:18;8.57;;;5.80;;
48685;SDS011;34485;51.536;3.816;2024-03-17T05:50:44;7.93;;;5.57;;
48685;SDS011;34485;51.536;3.816;2024-03-17T05:53:10;7.47;;;6.07;;
48685;SDS011;34485;51.536;3.816;2024-03-17T05:55:36;10.33;;;5.83;;
48685;SDS011;34485;51.536;3.816;2024-03-17T05:58:02;7.20;;;5.47;;
48685;SDS011;34485;51.536;3.816;2024-03-17T06:00:28;8.80;;;6.72;;
48685;SDS011;34485;51.536;3.816;2024-03-17T06:02:55;9.95;;;5.90;;
48685;SDS011;34485;51.536;3.816;2024-03-17T06:05:21;8.90;;;6.18;;
48685;SDS011;34485;51.536;3.816;2024-03-17T06:07:47;6.70;;;5.67;;
48685;SDS011;34485;51.536;3.816;2024-03-17T06:10:13;6.18;;;5.40;;
48685;SDS011;34485;51.536;3.816;2024-03-17T06:12:39;8.40;;;6.22;;
48685;SDS011;34485;51.536;3.816;2024-03-17T06:15:05;9.07;;;5.70;;
48685;SDS011;34485;51.536;3.816;2024-03-17T06:17:31;9.95;;;6.38;;
48685;SDS011;34485;51.536;3.816;2024-03-17T06:19:57;9.20;;;5.93;;
48685;SDS011;34485;51.536;3.816;2024-03-17T06:22:23;9.60;;;6.00;;
48685;SDS011;34485;51.536;3.816;2024-03-17T06:24:49;8.15;;;5.78;;
48685;SDS011;34485;51.536;3.816;2024-03-17T06:27:15;11.55;;;6.35;;
48685;SDS011;34485;51.536;3.816;2024-03-17T06:29:41;8.25;;;5.82;;
48685;SDS011;34485;51.536;3.816;2024-03-17T06:32:10;10.63;;;7.10;;
48685;SDS011;34485;51.536;3.816;2024-03-17T06:34:36;5.72;;;4.53;;
48685;SDS011;34485;51.536;3.816;2024-03-17T06:37:02;7.30;;;5.60;;
48685;SDS011;34485;51.536;3.816;2024-03-17T06:39:28;7.00;;;4.73;;
48685;SDS011;34485;51.536;3.816;2024-03-17T06:41:54;6.50;;;4.93;;
48685;SDS011;34485;51.536;3.816;2024-03-17T06:44:20;7.35;;;4.88;;
48685;SDS011;34485;51.536;3.816;2024-03-17T06:46:49;6.80;;;5.72;;
48685;SDS011;34485;51.536;3.816;2024-03-17T06:49:15;6.43;;;4.70;;
48685;SDS011;34485;51.536;3.816;2024-03-17T06:51:40;9.60;;;5.50;;
48685;SDS011;34485;51.536;3.816;2024-03-17T06:54:08;7.80;;;5.05;;
48685;SDS011;34485;51.536;3.816;2024-03-17T06:56:34;7.35;;;5.60;;
48685;SDS011;34485;51.536;3.816;2024-03-17T06:59:00;9.52;;;5.35;;
48685;SDS011;34485;51.536;3.816;2024-03-17T07:01:26;9.63;;;5.93;;
48685;SDS011;34485;51.536;3.816;2024-03-17T07:03:52;9.35;;;6.10;;
48685;SDS011;34485;51.536;3.816;2024-03-17T07:06:17;7.47;;;5.53;;
48685;SDS011;34485;51.536;3.816;2024-03-17T07:08:43;5.30;;;4.60;;
48685;SDS011;34485;51.536;3.816;2024-03-17T07:11:08;7.53;;;5.95;;
48685;SDS011;34485;51.536;3.816;2024-03-17T07:13:35;6.65;;;4.72;;
48685;SDS011;34485;51.536;3.816;2024-03-17T07:16:03;7.97;;;6.30;;
48685;SDS011;34485;51.536;3.816;2024-03-17T07:18:32;7.05;;;5.35;;
48685;SDS011;34485;51.536;3.816;2024-03-17T07:20:59;7.22;;;6.18;;
48685;SDS011;34485;51.536;3.816;2024-03-17T07:23:27;9.80;;;5.35;;
48685;SDS011;34485;51.536;3.816;2024-03-17T07:25:54;10.43;;;6.30;;
48685;SDS011;34485;51.536;3.816;2024-03-17T07:28:20;9.65;;;6.97;;
48685;SDS011;34485;51.536;3.816;2024-03-17T07:30:47;7.30;;;5.85;;
48685;SDS011;34485;51.536;3.816;2024-03-17T07:33:17;7.32;;;5.90;;
48685;SDS011;34485;51.536;3.816;2024-03-17T07:35:52;9.75;;;6.00;;
48685;SDS011;34485;51.536;3.816;2024-03-17T07:38:19;9.38;;;6.43;;
48685;SDS011;34485;51.536;3.816;2024-03-17T07:40:54;7.47;;;5.40;;
48685;SDS011;34485;51.536;3.816;2024-03-17T07:43:24;10.73;;;6.22;;
48685;SDS011;34485;51.536;3.816;2024-03-17T07:46:04;10.13;;;5.80;;
48685;SDS011;34485;51.536;3.816;2024-03-17T07:48:31;17.10;;;7.95;;
48685;SDS011;34485;51.536;3.816;2024-03-17T07:51:02;6.82;;;6.13;;
48685;SDS011;34485;51.536;3.816;2024-03-17T07:53:32;11.88;;;5.10;;
48685;SDS011;34485;51.536;3.816;2024-03-17T07:55:59;10.18;;;6.03;;
48685;SDS011;34485;51.536;3.816;2024-03-17T07:58:26;6.60;;;5.65;;
48685;SDS011;34485;51.536;3.816;2024-03-17T08:00:53;8.50;;;6.37;;
48685;SDS011;34485;51.536;3.816;2024-03-17T08:03:24;7.53;;;5.53;;
48685;SDS011;34485;51.536;3.816;2024-03-17T08:05:53;9.85;;;5.97;;
48685;SDS011;34485;51.536;3.816;2024-03-17T08:08:19;8.85;;;6.00;;
48685;SDS011;34485;51.536;3.816;2024-03-17T08:10:45;7.77;;;5.07;;
48685;SDS011;34485;51.536;3.816;2024-03-17T08:13:14;11.52;;;6.38;;
48685;SDS011;34485;51.536;3.816;2024-03-17T08:15:44;11.38;;;6.20;;
48685;SDS011;34485;51.536;3.816;2024-03-17T08:18:13;9.90;;;6.10;;
48685;SDS011;34485;51.536;3.816;2024-03-17T08:20:39;8.03;;;6.00;;
48685;SDS011;34485;51.536;3.816;2024-03-17T08:23:06;7.82;;;6.38;;
48685;SDS011;34485;51.536;3.816;2024-03-17T08:25:34;9.82;;;5.93;;
48685;SDS011;34485;51.536;3.816;2024-03-17T08:28:00;13.05;;;5.47;;
48685;SDS011;34485;51.536;3.816;2024-03-17T08:30:27;10.57;;;5.65;;
48685;SDS011;34485;51.536;3.816;2024-03-17T08:32:52;12.20;;;5.90;;
48685;SDS011;34485;51.536;3.816;2024-03-17T08:35:19;7.32;;;5.68;;
48685;SDS011;34485;51.536;3.816;2024-03-17T08:37:45;11.13;;;6.40;;
48685;SDS011;34485;51.536;3.816;2024-03-17T08:40:11;13.87;;;7.30;;
48685;SDS011;34485;51.536;3.816;2024-03-17T08:42:38;9.75;;;6.75;;
48685;SDS011;34485;51.536;3.816;2024-03-17T08:45:04;9.48;;;5.90;;
48685;SDS011;34485;51.536;3.816;2024-03-17T08:47:29;12.07;;;6.87;;
48685;SDS011;34485;51.536;3.816;2024-03-17T08:49:55;9.07;;;6.85;;
48685;SDS011;34485;51.536;3.816;2024-03-17T08:52:23;9.38;;;6.28;;
48685;SDS011;34485;51.536;3.816;2024-03-17T08:54:48;10.95;;;7.65;;
48685;SDS011;34485;51.536;3.816;2024-03-17T08:57:16;14.25;;;7.28;;
48685;SDS011;34485;51.536;3.816;2024-03-17T08:59:42;9.95;;;6.72;;
48685;SDS011;34485;51.536;3.816;2024-03-17T09:02:11;7.77;;;5.93;;
48685;SDS011;34485;51.536;3.816;2024-03-17T09:04:41;13.30;;;7.05;;
48685;SDS011;34485;51.536;3.816;2024-03-17T09:07:07;10.80;;;7.45;;
48685;SDS011;34485;51.536;3.816;2024-03-17T09:09:33;14.30;;;7.50;;
48685;SDS011;34485;51.536;3.816;2024-03-17T09:11:59;17.52;;;7.32;;
48685;SDS011;34485;51.536;3.816;2024-03-17T09:14:24;18.98;;;9.07;;
48685;SDS011;34485;51.536;3.816;2024-03-17T09:16:50;14.13;;;7.57;;
48685;SDS011;34485;51.536;3.816;2024-03-17T09:19:16;15.20;;;7.37;;
48685;SDS011;34485;51.536;3.816;2024-03-17T09:21:42;14.97;;;7.23;;
48685;SDS011;34485;51.536;3.816;2024-03-17T09:24:10;13.73;;;7.78;;
48685;SDS011;34485;51.536;3.816;2024-03-17T09:26:36;13.32;;;8.05;;
48685;SDS011;34485;51.536;3.816;2024-03-17T09:29:04;12.73;;;7.82;;
48685;SDS011;34485;51.536;3.816;2024-03-17T09:31:30;16.20;;;9.07;;
48685;SDS011;34485;51.536;3.816;2024-03-17T09:33:59;21.50;;;8.73;;
48685;SDS011;34485;51.536;3.816;2024-03-17T09:36:24;15.68;;;9.20;;
48685;SDS011;34485;51.536;3.816;2024-03-17T09:38:50;18.80;;;9.27;;
48685;SDS011;34485;51.536;3.816;2024-03-17T09:41:20;15.18;;;7.95;;
48685;SDS011;34485;51.536;3.816;2024-03-17T09:43:47;15.97;;;7.47;;
48685;SDS011;34485;51.536;3.816;2024-03-17T09:46:14;17.67;;;8.75;;
48685;SDS011;34485;51.536;3.816;2024-03-17T09:48:41;15.85;;;9.20;;
48685;SDS011;34485;51.536;3.816;2024-03-17T09:51:08;17.85;;;9.20;;
48685;SDS011;34485;51.536;3.816;2024-03-17T09:53:43;14.63;;;7.55;;
48685;SDS011;34485;51.536;3.816;2024-03-17T09:56:12;14.82;;;8.30;;
48685;SDS011;34485;51.536;3.816;2024-03-17T09:58:43;13.63;;;7.90;;
48685;SDS011;34485;51.536;3.816;2024-03-17T10:01:10;13.38;;;7.90;;
48685;SDS011;34485;51.536;3.816;2024-03-17T10:06:09;11.75;;;7.22;;
48685;SDS011;34485;51.536;3.816;2024-03-17T10:08:55;13.80;;;7.05;;
48685;SDS011;34485;51.536;3.816;2024-03-17T10:11:32;17.83;;;7.78;;
48685;SDS011;34485;51.536;3.816;2024-03-17T10:14:01;13.75;;;7.43;;
48685;SDS011;34485;51.536;3.816;2024-03-17T10:16:30;8.97;;;6.03;;
48685;SDS011;34485;51.536;3.816;2024-03-17T10:21:45;25.90;;;12.85;;
48685;SDS011;34485;51.536;3.816;2024-03-17T10:24:21;15.57;;;9.10;;
48685;SDS011;34485;51.536;3.816;2024-03-17T10:26:48;19.95;;;8.45;;
48685;SDS011;34485;51.536;3.816;2024-03-17T10:29:33;11.93;;;8.13;;
48685;SDS011;34485;51.536;3.816;2024-03-17T10:32:03;13.07;;;7.72;;
48685;SDS011;34485;51.536;3.816;2024-03-17T10:34:30;15.52;;;7.82;;
48685;SDS011;34485;51.536;3.816;2024-03-17T10:39:36;20.52;;;9.38;;
48685;SDS011;34485;51.536;3.816;2024-03-17T10:42:05;21.93;;;10.33;;
48685;SDS011;34485;51.536;3.816;2024-03-17T10:44:32;16.88;;;9.32;;
48685;SDS011;34485;51.536;3.816;2024-03-17T10:47:01;17.67;;;10.20;;
48685;SDS011;34485;51.536;3.816;2024-03-17T10:49:31;16.92;;;8.27;;
48685;SDS011;34485;51.536;3.816;2024-03-17T10:52:03;17.67;;;8.85;;
48685;SDS011;34485;51.536;3.816;2024-03-17T10:54:30;17.43;;;9.70;;
48685;SDS011;34485;51.536;3.816;2024-03-17T10:57:02;15.02;;;10.00;;
48685;SDS011;34485;51.536;3.816;2024-03-17T10:59:41;18.95;;;12.70;;
48685;SDS011;34485;51.536;3.816;2024-03-17T11:04:51;15.35;;;9.27;;
48685;SDS011;34485;51.536;3.816;2024-03-17T11:07:18;13.03;;;8.07;;
48685;SDS011;34485;51.536;3.816;2024-03-17T11:09:45;12.00;;;7.35;;
48685;SDS011;34485;51.536;3.816;2024-03-17T11:17:47;14.27;;;9.43;;
48685;SDS011;34485;51.536;3.816;2024-03-17T11:20:26;11.40;;;7.43;;
48685;SDS011;34485;51.536;3.816;2024-03-17T11:22:56;13.52;;;7.45;;
48685;SDS011;34485;51.536;3.816;2024-03-17T11:27:52;17.77;;;9.13;;
48685;SDS011;34485;51.536;3.816;2024-03-17T11:46:44;14.80;;;7.37;;
48685;SDS011;34485;51.536;3.816;2024-03-17T11:49:18;10.25;;;7.53;;
48685;SDS011;34485;51.536;3.816;2024-03-17T11:51:49;10.20;;;7.40;;
48685;SDS011;34485;51.536;3.816;2024-03-17T11:54:17;16.70;;;7.63;;
48685;SDS011;34485;51.536;3.816;2024-03-17T11:56:48;13.02;;;8.25;;
48685;SDS011;34485;51.536;3.816;2024-03-17T11:59:15;10.10;;;5.43;;
48685;SDS011;34485;51.536;3.816;2024-03-17T12:01:51;11.50;;;6.72;;
48685;SDS011;34485;51.536;3.816;2024-03-17T12:04:18;10.40;;;7.25;;
48685;SDS011;34485;51.536;3.816;2024-03-17T12:06:49;14.00;;;5.32;;
48685;SDS011;34485;51.536;3.816;2024-03-17T12:12:03;11.77;;;5.97;;
48685;SDS011;34485;51.536;3.816;2024-03-17T12:14:36;6.93;;;5.38;;
48685;SDS011;34485;51.536;3.816;2024-03-17T12:17:03;12.75;;;6.55;;
48685;SDS011;34485;51.536;3.816;2024-03-17T12:19:33;13.13;;;7.00;;
48685;SDS011;34485;51.536;3.816;2024-03-17T12:22:00;9.85;;;7.28;;
48685;SDS011;34485;51.536;3.816;2024-03-17T12:24:27;12.20;;;6.60;;
48685;SDS011;34485;51.536;3.816;2024-03-17T12:26:55;7.85;;;6.22;;
48685;SDS011;34485;51.536;3.816;2024-03-17T12:29:37;7.47;;;6.32;;
48685;SDS011;34485;51.536;3.816;2024-03-17T12:34:45;6.35;;;5.70;;
48685;SDS011;34485;51.536;3.816;2024-03-17T12:39:44;7.93;;;6.00;;
48685;SDS011;34485;51.536;3.816;2024-03-17T12:42:11;7.00;;;5.78;;
48685;SDS011;34485;51.536;3.816;2024-03-17T12:44:48;10.07;;;6.03;;
48685;SDS011;34485;51.536;3.816;2024-03-17T12:47:15;12.70;;;6.05;;
48685;SDS011;34485;51.536;3.816;2024-03-17T12:49:46;11.07;;;6.00;;
48685;SDS011;34485;51.536;3.816;2024-03-17T12:52:17;11.82;;;6.45;;
48685;SDS011;34485;51.536;3.816;2024-03-17T12:55:03;13.23;;;7.03;;
48685;SDS011;34485;51.536;3.816;2024-03-17T12:57:49;11.82;;;7.43;;
48685;SDS011;34485;51.536;3.816;2024-03-17T13:00:34;11.55;;;6.70;;
48685;SDS011;34485;51.536;3.816;2024-03-17T13:05:31;10.68;;;6.75;;
48685;SDS011;34485;51.536;3.816;2024-03-17T13:08:00;9.43;;;6.05;;
48685;SDS011;34485;51.536;3.816;2024-03-17T13:10:27;9.55;;;5.68;;
48685;SDS011;34485;51.536;3.816;2024-03-17T13:13:07;10.70;;;6.13;;
48685;SDS011;34485;51.536;3.816;2024-03-17T13:15:34;9.53;;;6.20;;
48685;SDS011;34485;51.536;3.816;2024-03-17T13:18:03;9.43;;;5.65;;
48685;SDS011;34485;51.536;3.816;2024-03-17T13:20:32;8.35;;;5.75;;
48685;SDS011;34485;51.536;3.816;2024-03-17T13:22:59;9.32;;;4.72;;
48685;SDS011;34485;51.536;3.816;2024-03-17T13:25:27;10.27;;;6.00;;
48685;SDS011;34485;51.536;3.816;2024-03-17T13:28:03;6.60;;;4.37;;
48685;SDS011;34485;51.536;3.816;2024-03-17T13:30:29;11.52;;;4.75;;
48685;SDS011;34485;51.536;3.816;2024-03-17T13:32:58;9.32;;;5.57;;
48685;SDS011;34485;51.536;3.816;2024-03-17T13:35:24;9.00;;;5.03;;
48685;SDS011;34485;51.536;3.816;2024-03-17T13:37:52;7.87;;;5.30;;
48685;SDS011;34485;51.536;3.816;2024-03-17T13:40:19;7.10;;;4.65;;
48685;SDS011;34485;51.536;3.816;2024-03-17T13:42:46;7.05;;;4.70;;
48685;SDS011;34485;51.536;3.816;2024-03-17T13:45:12;7.68;;;4.75;;
48685;SDS011;34485;51.536;3.816;2024-03-17T13:47:39;11.93;;;5.38;;
48685;SDS011;34485;51.536;3.816;2024-03-17T13:50:06;7.97;;;4.90;;
48685;SDS011;34485;51.536;3.816;2024-03-17T13:52:37;7.75;;;3.97;;
48685;SDS011;34485;51.536;3.816;2024-03-17T13:55:04;7.95;;;4.35;;
48685;SDS011;34485;51.536;3.816;2024-03-17T13:57:33;7.53;;;4.35;;
48685;SDS011;34485;51.536;3.816;2024-03-17T13:59:59;7.40;;;4.30;;
48685;SDS011;34485;51.536;3.816;2024-03-17T14:02:25;9.63;;;4.70;;
48685;SDS011;34485;51.536;3.816;2024-03-17T14:04:50;4.67;;;3.90;;
48685;SDS011;34485;51.536;3.816;2024-03-17T14:07:16;8.00;;;3.58;;
48685;SDS011;34485;51.536;3.816;2024-03-17T14:09:42;4.77;;;4.27;;
48685;SDS011;34485;51.536;3.816;2024-03-17T14:12:08;10.50;;;3.72;;
48685;SDS011;34485;51.536;3.816;2024-03-17T14:14:33;4.25;;;3.92;;
48685;SDS011;34485;51.536;3.816;2024-03-17T14:16:59;5.03;;;3.67;;
48685;SDS011;34485;51.536;3.816;2024-03-17T14:19:25;4.60;;;3.00;;
48685;SDS011;34485;51.536;3.816;2024-03-17T14:21:51;6.95;;;3.53;;
48685;SDS011;34485;51.536;3.816;2024-03-17T14:24:17;5.83;;;3.67;;
48685;SDS011;34485;51.536;3.816;2024-03-17T14:26:43;4.15;;;3.20;;
48685;SDS011;34485;51.536;3.816;2024-03-17T14:29:09;5.77;;;3.70;;
48685;SDS011;34485;51.536;3.816;2024-03-17T14:31:34;8.60;;;2.43;;
48685;SDS011;34485;51.536;3.816;2024-03-17T14:34:05;9.68;;;3.17;;
48685;SDS011;34485;51.536;3.816;2024-03-17T14:36:31;4.63;;;3.70;;
48685;SDS011;34485;51.536;3.816;2024-03-17T14:38:58;4.47;;;2.63;;
48685;SDS011;34485;51.536;3.816;2024-03-17T14:41:24;4.55;;;3.38;;
48685;SDS011;34485;51.536;3.816;2024-03-17T14:43:52;9.02;;;3.65;;
48685;SDS011;34485;51.536;3.816;2024-03-17T14:46:18;5.33;;;3.03;;
48685;SDS011;34485;51.536;3.816;2024-03-17T14:48:43;5.30;;;3.70;;
48685;SDS011;34485;51.536;3.816;2024-03-17T14:51:09;3.67;;;3.33;;
48685;SDS011;34485;51.536;3.816;2024-03-17T14:53:36;6.93;;;3.13;;
48685;SDS011;34485;51.536;3.816;2024-03-17T14:56:07;13.93;;;3.95;;
48685;SDS011;34485;51.536;3.816;2024-03-17T14:58:36;9.77;;;4.18;;
48685;SDS011;34485;51.536;3.816;2024-03-17T15:01:02;10.37;;;3.50;;
48685;SDS011;34485;51.536;3.816;2024-03-17T15:03:27;7.50;;;4.00;;
48685;SDS011;34485;51.536;3.816;2024-03-17T15:05:53;7.87;;;3.67;;
48685;SDS011;34485;51.536;3.816;2024-03-17T15:08:19;6.25;;;4.32;;
48685;SDS011;34485;51.536;3.816;2024-03-17T15:10:44;9.07;;;3.93;;
48685;SDS011;34485;51.536;3.816;2024-03-17T15:13:10;8.13;;;4.17;;
48685;SDS011;34485;51.536;3.816;2024-03-17T15:15:39;9.18;;;4.75;;
48685;SDS011;34485;51.536;3.816;2024-03-17T15:18:05;6.82;;;5.00;;
48685;SDS011;34485;51.536;3.816;2024-03-17T15:20:33;8.27;;;4.78;;
48685;SDS011;34485;51.536;3.816;2024-03-17T15:23:00;11.23;;;4.97;;
48685;SDS011;34485;51.536;3.816;2024-03-17T15:25:26;6.43;;;4.27;;
48685;SDS011;34485;51.536;3.816;2024-03-17T15:27:51;11.98;;;6.38;;
48685;SDS011;34485;51.536;3.816;2024-03-17T15:30:17;6.43;;;4.10;;
48685;SDS011;34485;51.536;3.816;2024-03-17T15:32:47;12.02;;;6.90;;